Time;durP1;ratioP1;P1;durP2;ratioP2;P2;SDS_P1;SDS_P2;PMS_P1;PMS_P2;Temp;Humidity;BMP_temperature;BMP_pressure;BME280_temperature;BME280_humidity;BME280_pressure;Samples;Min_cycle;Max_cycle;Signal;HPM_P1;HPM_P2
2023/10/13 00:02:14;;;;;;;21.55;18.92;;;;;;;19.21;74.85;99415.56;4914681;29;20052;-83
2023/10/13 00:04:42;;;;;;;23.55;19.42;;;;;;;19.22;74.73;99411.91;4914269;29;20515;-83
2023/10/13 00:07:09;;;;;;;22.38;19.10;;;;;;;19.22;74.85;99414.56;4914390;29;20055;-83
2023/10/13 00:09:40;;;;;;;26.27;18.52;;;;;;;19.22;74.84;99403.91;4914096;29;20091;-83
2023/10/13 00:12:13;;;;;;;22.23;18.38;;;;;;;19.23;74.71;99405.59;4914587;29;20050;-83
2023/10/13 00:14:45;;;;;;;21.52;18.42;;;;;;;19.24;74.87;99403.75;4914466;29;20052;-83
2023/10/13 00:17:20;;;;;;;24.10;19.08;;;;;;;19.23;74.74;99397.59;4914301;29;20080;-84
2023/10/13 00:19:48;;;;;;;22.23;17.92;;;;;;;19.24;74.94;99399.25;4914360;29;20135;-83
2023/10/13 00:22:16;;;;;;;23.48;17.85;;;;;;;19.23;74.86;99397.59;4913081;29;20556;-83
2023/10/13 00:24:45;;;;;;;25.25;19.02;;;;;;;19.23;74.70;99400.25;4913705;29;20054;-83
2023/10/13 00:27:30;;;;;;;21.55;18.33;;;;;;;19.23;74.92;99391.41;4914438;29;20095;-83
2023/10/13 00:30:32;;;;;;;23.88;18.35;;;;;;;19.21;75.33;99399.56;4914469;29;20052;-81
2023/10/13 00:32:59;;;;;;;24.38;18.35;;;;;;;19.24;74.64;99399.25;4914185;29;20493;-82
2023/10/13 00:35:35;;;;;;;24.80;17.52;;;;;;;19.25;74.90;99392.09;4916296;29;20048;-84
2023/10/13 00:38:04;;;;;;;26.45;19.23;;;;;;;19.25;74.61;99392.91;4910230;29;20553;-83
2023/10/13 00:43:34;;;;;;;25.60;18.33;;;;;;;19.25;74.84;99392.91;4918058;29;20083;-83
2023/10/13 00:45:57;;;;;;;20.60;17.02;;;;;;;19.24;75.13;99388.59;4907377;29;20052;-83
2023/10/13 00:48:33;;;;;;;23.38;17.65;;;;;;;19.26;74.56;99383.09;4917733;29;20656;-84
2023/10/13 00:51:06;;;;;;;26.35;18.50;;;;;;;19.25;75.21;99384.09;4917995;29;20092;-84
2023/10/13 00:53:37;;;;;;;24.60;17.00;;;;;;;19.26;74.78;99372.44;4917664;29;20142;-82
2023/10/13 00:56:07;;;;;;;26.45;18.80;;;;;;;19.26;74.81;99369.75;4918007;29;20131;-83
2023/10/13 00:58:34;;;;;;;22.88;17.38;;;;;;;19.26;74.91;99381.25;4917860;29;20048;-84
2023/10/13 01:01:29;;;;;;;26.90;18.38;;;;;;;19.24;74.67;99361.91;4917772;29;20130;-83
2023/10/13 01:03:55;;;;;;;22.42;17.98;;;;;;;19.24;74.82;99361.91;4917204;29;20048;-84
2023/10/13 01:06:25;;;;;;;24.40;17.77;;;;;;;19.25;74.79;99354.75;4917506;29;20489;-84
2023/10/13 01:09:10;;;;;;;20.85;16.63;;;;;;;19.23;75.52;99351.38;4916238;29;20099;-83
2023/10/13 01:11:42;;;;;;;24.67;18.77;;;;;;;19.25;75.00;99346.75;4917479;29;20116;-83
2023/10/13 01:14:17;;;;;;;23.85;17.17;;;;;;;19.26;74.71;99348.41;4917418;29;20044;-83
2023/10/13 01:16:44;;;;;;;25.42;18.05;;;;;;;19.27;74.89;99350.94;4917308;29;20082;-83
2023/10/13 01:19:18;;;;;;;21.30;18.33;;;;;;;19.25;75.32;99347.56;4917372;29;20540;-83
2023/10/13 01:21:49;;;;;;;24.73;17.55;;;;;;;19.26;75.33;99349.22;4915898;29;20143;-83
2023/10/13 01:24:18;;;;;;;22.88;18.05;;;;;;;19.27;75.05;99342.94;4917291;29;20067;-83
2023/10/13 01:26:51;;;;;;;21.92;17.75;;;;;;;19.28;75.12;99346.41;4909280;29;20079;-83
2023/10/13 01:29:18;;;;;;;25.77;18.48;;;;;;;19.27;74.72;99344.75;4917500;29;20103;-84
2023/10/13 01:31:46;;;;;;;21.58;17.85;;;;;;;19.28;74.92;99330.41;4917216;29;20052;-83
2023/10/13 01:34:19;;;;;;;21.42;18.33;;;;;;;19.29;75.20;99339.25;4915828;29;20040;-85
2023/10/13 01:36:50;;;;;;;21.65;16.58;;;;;;;19.29;74.91;99336.59;4916967;29;20056;-82
2023/10/13 01:39:19;;;;;;;28.23;18.50;;;;;;;19.29;74.87;99328.59;4917301;29;20068;-85
2023/10/13 01:41:46;;;;;;;24.77;17.13;;;;;;;19.28;74.97;99327.72;4917142;29;20052;-82
2023/10/13 01:44:14;;;;;;;24.15;17.73;;;;;;;19.28;75.08;99330.41;4917034;29;20127;-84
2023/10/13 01:46:42;;;;;;;24.85;18.05;;;;;;;19.29;75.05;99324.09;4916596;29;20131;-83
2023/10/13 01:49:09;;;;;;;20.35;16.90;;;;;;;19.28;74.95;99322.41;4917109;29;20450;-83
2023/10/13 01:51:35;;;;;;;22.25;16.48;;;;;;;19.29;75.19;99310.75;4916533;29;20052;-83
2023/10/13 01:54:02;;;;;;;20.20;16.95;;;;;;;19.30;75.09;99320.44;4916777;29;20091;-83
2023/10/13 01:56:30;;;;;;;23.48;17.25;;;;;;;19.29;75.18;99293.91;4915640;29;20052;-83
2023/10/13 01:58:57;;;;;;;26.92;17.48;;;;;;;19.31;74.99;99297.22;4916857;29;20110;-82
2023/10/13 02:01:29;;;;;;;19.60;16.88;;;;;;;19.31;74.97;99302.56;4916537;29;20054;-83
2023/10/13 02:04:02;;;;;;;18.98;16.08;;;;;;;19.31;75.11;99298.06;4915287;29;20060;-83
2023/10/13 02:06:33;;;;;;;26.05;17.05;;;;;;;19.30;75.02;99291.06;4916403;29;20119;-84
2023/10/13 02:09:16;;;;;;;21.73;16.75;;;;;;;19.30;75.24;99288.41;4915503;29;20055;-83
2023/10/13 02:11:47;;;;;;;24.10;16.13;;;;;;;19.31;75.22;99286.56;4916384;29;20090;-83
2023/10/13 02:14:17;;;;;;;23.63;16.00;;;;;;;19.30;75.01;99288.41;4916387;29;20382;-83
2023/10/13 02:16:46;;;;;;;19.77;16.08;;;;;;;19.29;75.20;99294.75;4914925;29;20048;-83
2023/10/13 02:19:15;;;;;;;21.27;15.80;;;;;;;19.29;75.40;99286.75;4916578;29;20048;-83
2023/10/13 02:21:44;;;;;;;21.75;17.40;;;;;;;19.29;75.21;99283.22;4916335;29;20116;-82
2023/10/13 02:24:30;;;;;;;20.73;16.23;;;;;;;19.30;75.35;99279.56;4916266;29;20465;-83
2023/10/13 02:27:05;;;;;;;20.02;15.88;;;;;;;19.30;75.18;99280.41;4915931;29;20087;-83
2023/10/13 02:29:38;;;;;;;26.02;16.40;;;;;;;19.30;75.21;99269.72;4916405;29;20048;-83
2023/10/13 02:32:12;;;;;;;20.15;14.50;;;;;;;19.30;75.03;99269.72;4916243;29;20454;-83
2023/10/13 02:34:43;;;;;;;20.85;15.45;;;;;;;19.30;75.22;99266.22;4916099;29;20056;-83
2023/10/13 02:37:11;;;;;;;20.10;15.27;;;;;;;19.31;75.39;99262.53;4915918;29;20041;-83
2023/10/13 02:39:41;;;;;;;24.38;15.50;;;;;;;19.32;75.45;99262.38;4915896;29;20596;-82
2023/10/13 02:42:08;;;;;;;22.90;14.90;;;;;;;19.31;75.32;99260.72;4916042;29;20052;-84
2023/10/13 02:44:36;;;;;;;24.30;15.60;;;;;;;19.31;75.29;99252.72;4915645;29;20544;-83
2023/10/13 02:47:13;;;;;;;19.13;15.07;;;;;;;19.31;75.34;99250.03;4915711;29;20052;-83
2023/10/13 02:49:43;;;;;;;24.88;14.82;;;;;;;19.32;75.46;99250.91;4915674;29;20111;-83
2023/10/13 02:52:11;;;;;;;17.65;15.38;;;;;;;19.32;75.41;99249.03;4915636;29;20052;-83
2023/10/13 02:54:47;;;;;;;18.27;14.95;;;;;;;19.32;75.14;99241.03;4915658;29;20107;-83
2023/10/13 02:57:15;;;;;;;21.83;14.50;;;;;;;19.31;75.22;99239.38;4913730;29;20052;-83
2023/10/13 02:59:55;;;;;;;18.20;13.75;;;;;;;19.32;75.44;99243.72;4915777;29;20051;-83
2023/10/13 03:02:25;;;;;;;21.85;14.15;;;;;;;19.34;75.13;99243.56;4909907;29;20063;-83
2023/10/13 03:05:08;;;;;;;17.75;13.27;;;;;;;19.33;75.29;99236.56;4915878;29;20056;-83
2023/10/13 03:07:36;;;;;;;21.50;14.00;;;;;;;19.34;75.30;99236.41;4915595;29;20082;-82
2023/10/13 03:10:10;;;;;;;18.98;13.98;;;;;;;19.34;75.38;99236.41;4915313;29;20052;-83
2023/10/13 03:12:38;;;;;;;21.30;13.82;;;;;;;19.34;75.24;99233.72;4915436;29;20496;-83
2023/10/13 03:15:20;;;;;;;18.13;13.90;;;;;;;19.33;75.07;99224.03;4913707;29;20048;-83
2023/10/13 03:17:47;;;;;;;20.13;14.60;;;;;;;19.34;75.21;99228.41;4913567;29;20135;-83
2023/10/13 03:20:16;;;;;;;21.70;14.23;;;;;;;19.34;75.10;99222.22;4915268;29;20473;-83
2023/10/13 03:22:45;;;;;;;18.95;13.40;;;;;;;19.34;75.13;99216.88;4915348;29;20056;-83
2023/10/13 03:26:04;;;;;;;19.25;13.05;;;;;;;19.33;75.79;99216.03;4908021;29;20119;-83
2023/10/13 03:28:05;;;;;;;17.30;12.52;;;;;;;19.35;75.11;99208.72;4912039;29;20048;-84
2023/10/13 03:30:35;;;;;;;14.27;11.45;;;;;;;19.35;75.28;99206.03;4915389;29;20127;-83
2023/10/13 03:33:07;;;;;;;19.10;12.10;;;;;;;19.35;75.28;99206.03;4914945;29;20060;-84
2023/10/13 03:35:37;;;;;;;19.20;12.82;;;;;;;19.36;75.29;99210.38;4914963;29;20127;-81
2023/10/13 03:38:27;;;;;;;15.23;11.95;;;;;;;19.36;75.28;99207.72;4912282;29;20052;-84
2023/10/13 03:40:56;;;;;;;18.38;12.27;;;;;;;19.36;75.34;99207.72;4912062;29;20066;-83
2023/10/13 03:43:28;;;;;;;17.83;12.27;;;;;;;19.37;75.18;99203.22;4915169;29;20052;-83
2023/10/13 03:46:07;;;;;;;;;;;;;;;19.35;76.20;99213.19;4915179;29;20120;-83
2023/10/13 03:48:51;;;;;;;14.73;11.00;;;;;;;19.40;75.17;99205.56;4915035;29;20280;-84
2023/10/13 03:51:19;;;;;;;17.10;11.35;;;;;;;19.39;74.72;99202.06;4914800;29;20512;-84
2023/10/13 03:53:55;;;;;;;21.05;11.48;;;;;;;19.39;75.08;99190.53;4914636;29;20056;-84
2023/10/13 03:56:26;;;;;;;15.80;10.93;;;;;;;19.38;75.40;99181.72;4913325;29;20052;-83
2023/10/13 03:59:35;;;;;;;15.27;11.98;;;;;;;19.37;75.23;99180.03;4914584;29;20063;-85
2023/10/13 04:04:34;;;;;;;14.57;10.95;;;;;;;19.39;75.14;99167.38;4914580;29;20052;-83
2023/10/13 04:17:14;;;;;;;16.73;11.25;;;;;;;19.39;75.35;99155.84;4914180;29;20146;-83
2023/10/13 04:23:17;;;;;;;20.15;11.35;;;;;;;19.39;75.44;99147.84;4914798;29;20087;-83
2023/10/13 04:41:42;;;;;;;17.63;12.38;;;;;;;19.35;75.65;99106.44;4914421;29;20051;-84
2023/10/13 04:44:47;;;;;;;18.50;11.88;;;;;;;19.34;75.54;99097.63;4914297;29;20103;-83
2023/10/13 04:47:17;;;;;;;17.52;11.98;;;;;;;19.36;75.19;99094.81;4914202;29;20051;-81
2023/10/13 04:52:27;;;;;;;18.88;14.45;;;;;;;19.36;75.60;99084.13;4914140;29;20127;-83
2023/10/13 04:54:54;;;;;;;18.10;13.50;;;;;;;19.36;75.42;99078.78;4914137;29;20052;-83
2023/10/13 05:03:01;;;;;;;18.58;15.30;;;;;;;19.33;76.01;99061.25;4914126;29;20505;-82
2023/10/13 05:49:49;;;;;;;20.30;14.82;;;;;;;19.27;75.48;98964.03;4917065;29;20051;-84
2023/10/13 05:52:19;;;;;;;15.20;12.95;;;;;;;19.26;75.75;98965.00;4916723;29;20580;-81
2023/10/13 06:30:19;;;;;;;12.50;10.02;;;;;;;19.12;75.83;98926.50;4916117;29;20092;-79
2023/10/13 06:32:46;;;;;;;14.38;10.90;;;;;;;19.12;76.14;98929.16;4914983;29;20044;-82
2023/10/13 06:35:22;;;;;;;13.00;11.35;;;;;;;19.11;76.47;98924.78;4916111;29;20445;-79
2023/10/13 06:37:50;;;;;;;14.05;11.35;;;;;;;19.12;76.28;98917.63;4916017;29;20060;-80
2023/10/13 06:40:33;;;;;;;13.05;11.63;;;;;;;19.12;76.48;98910.47;4915893;29;20497;-81
2023/10/13 06:43:21;;;;;;;13.82;12.38;;;;;;;19.15;76.71;98909.31;4916179;29;20066;-80
2023/10/13 06:46:00;;;;;;;15.93;13.45;;;;;;;19.18;76.89;98925.00;4916099;29;20055;-81
2023/10/13 06:48:32;;;;;;;18.10;13.45;;;;;;;19.19;76.92;98915.16;4915632;29;20050;-84
2023/10/13 06:51:17;;;;;;;17.52;13.65;;;;;;;19.21;77.02;98918.50;4915766;29;20056;-82
2023/10/13 06:53:48;;;;;;;14.50;12.88;;;;;;;19.25;77.19;98926.00;4915565;29;20051;-79
2023/10/13 06:56:21;;;;;;;14.88;13.10;;;;;;;19.25;77.42;98922.50;4915685;29;20051;-79
2023/10/13 06:58:51;;;;;;;;;;;;;;;19.25;78.11;98918.00;4916316;29;20079;-81
2023/10/13 07:01:23;;;;;;;14.60;11.95;;;;;;;19.33;76.93;98925.16;4914114;29;19927;-83
2023/10/13 07:03:53;;;;;;;14.75;12.73;;;;;;;19.34;76.95;98928.69;4915391;29;20504;-81
2023/10/13 07:06:20;;;;;;;13.55;11.82;;;;;;;19.34;77.52;98921.53;4913599;29;20501;-82
2023/10/13 07:08:53;;;;;;;14.05;12.00;;;;;;;19.35;77.49;98933.84;4915563;29;20068;-79
2023/10/13 07:11:33;;;;;;;;;;;;;;;19.37;78.36;98950.50;4915678;29;20056;-81
2023/10/13 07:14:16;;;;;;;13.98;10.10;;;;;;;19.45;77.97;98936.38;4910085;29;19927;-80
2023/10/13 07:16:58;;;;;;;10.80;8.98;;;;;;;19.48;77.87;98927.19;4909066;29;20067;-80
2023/10/13 07:19:27;;;;;;;10.00;8.60;;;;;;;19.52;77.99;98947.22;4915237;29;20055;-82
2023/10/13 07:21:59;;;;;;;15.52;8.68;;;;;;;19.56;78.04;98935.22;4913873;29;20111;-81
2023/10/13 07:24:31;;;;;;;10.43;7.78;;;;;;;19.59;78.26;98932.19;4910872;29;20063;-81
2023/10/13 07:27:05;;;;;;;10.88;7.78;;;;;;;19.64;78.35;98931.69;4910923;29;20156;-81
2023/10/13 07:29:35;;;;;;;8.25;7.18;;;;;;;19.69;77.98;98925.88;4908130;29;20056;-81
2023/10/13 07:32:02;;;;;;;9.25;7.18;;;;;;;19.72;78.12;98920.16;4914656;29;20454;-81
2023/10/13 07:34:32;;;;;;;15.10;7.05;;;;;;;19.78;78.31;98924.84;4914756;29;20052;-83
2023/10/13 07:36:59;;;;;;;9.73;7.00;;;;;;;19.83;78.27;98927.00;4914513;29;20760;-80
2023/10/13 07:39:34;;;;;;;10.70;6.95;;;;;;;19.86;78.36;98924.00;4912493;29;20120;-80
2023/10/13 07:42:15;;;;;;;7.45;6.40;;;;;;;19.92;78.02;98932.19;4913557;29;20058;-81
2023/10/13 07:44:45;;;;;;;11.63;7.18;;;;;;;19.97;77.97;98929.00;4914462;29;20060;-80
2023/10/13 07:47:14;;;;;;;11.93;7.13;;;;;;;20.02;77.84;98941.88;4913365;29;20048;-81
2023/10/13 07:49:41;;;;;;;10.63;6.28;;;;;;;20.06;77.90;98929.84;4913219;29;20056;-81
2023/10/13 07:55:10;;;;;;;8.75;6.28;;;;;;;20.13;77.65;98917.50;4907692;29;20099;-82
2023/10/13 07:57:53;;;;;;;8.25;6.38;;;;;;;20.19;77.54;98924.00;4913944;29;20052;-80
2023/10/13 08:09:29;;;;;;;9.40;6.28;;;;;;;20.32;77.04;98902.06;4911861;29;20127;-81
2023/10/13 08:11:55;;;;;;;9.57;6.05;;;;;;;20.34;77.41;98897.41;4913002;29;20048;-81
2023/10/13 08:14:23;;;;;;;10.65;6.65;;;;;;;20.38;77.13;98889.84;4910213;29;20052;-82
2023/10/13 08:17:07;;;;;;;8.07;6.75;;;;;;;20.42;77.32;98889.31;4897670;29;20486;-80
2023/10/13 08:19:46;;;;;;;9.57;6.68;;;;;;;20.46;77.23;98891.66;4913689;29;20047;-81
2023/10/13 08:27:49;;;;;;;10.68;7.07;;;;;;;20.52;77.32;98869.59;4914152;29;20194;-80
2023/10/13 08:30:33;;;;;;;8.85;6.85;;;;;;;20.55;77.21;98878.09;4897544;29;20131;-80
2023/10/13 08:33:16;;;;;;;10.98;7.05;;;;;;;20.58;77.13;98868.88;4914475;29;20048;-80
2023/10/13 08:38:29;;;;;;;10.60;6.88;;;;;;;20.64;76.44;98852.13;4914187;29;19978;-80
2023/10/13 08:43:50;;;;;;;10.07;7.55;;;;;;;20.61;76.77;98839.13;4914368;29;20056;-80
2023/10/13 08:46:30;;;;;;;11.88;8.63;;;;;;;20.60;76.76;98837.47;4913965;29;20151;-81
2023/10/13 08:49:15;;;;;;;12.40;8.93;;;;;;;20.60;76.90;98829.44;4899441;29;20048;-80
2023/10/13 08:51:49;;;;;;;12.57;8.65;;;;;;;20.61;76.73;98828.44;4912883;29;20063;-83
2023/10/13 08:54:33;;;;;;;9.95;8.35;;;;;;;20.61;76.79;98822.25;4913818;29;20049;-80
2023/10/13 08:57:30;;;;;;;14.70;8.98;;;;;;;20.62;76.94;98821.22;4900081;29;20048;-79
2023/10/13 09:00:03;;;;;;;14.50;8.98;;;;;;;20.65;76.88;98823.56;4917895;29;20044;-80
2023/10/13 09:08:35;;;;;;;10.82;7.75;;;;;;;20.66;76.90;98814.50;4867894;29;20131;-81
2023/10/13 09:11:11;;;;;;;15.55;7.88;;;;;;;20.70;76.69;98799.78;4917715;29;20143;-80
2023/10/13 09:13:43;;;;;;;17.50;7.90;;;;;;;20.71;76.95;98793.44;4910112;29;20060;-81
2023/10/13 09:16:51;;;;;;;14.27;7.28;;;;;;;20.72;76.84;98797.78;4913370;29;20496;-80
2023/10/13 09:19:05;;;;;;;13.57;6.53;;;;;;;20.73;77.03;98794.09;4915651;29;20579;-80
2023/10/13 09:26:55;;;;;;;16.48;6.85;;;;;;;20.87;77.30;98787.19;4917298;29;20084;-82
2023/10/13 09:29:24;;;;;;;15.73;5.65;;;;;;;20.93;77.55;98778.44;4900408;29;20123;-81
2023/10/13 09:32:11;;;;;;;10.32;5.38;;;;;;;20.96;77.72;98778.06;4900264;29;20070;-78
2023/10/13 09:34:40;;;;;;;15.45;6.05;;;;;;;21.08;77.88;98775.78;4915434;29;20048;-79
2023/10/13 09:37:11;;;;;;;14.45;6.18;;;;;;;21.17;77.63;98771.22;4917029;29;20055;-81
2023/10/13 09:42:12;;;;;;;;;;;;;;;21.31;77.44;98769.56;4917226;29;20059;-80
2023/10/13 09:44:49;;;;;;;15.15;5.53;;;;;;;21.47;76.97;98784.66;4911454;29;19965;-80
2023/10/13 09:47:29;;;;;;;13.48;5.97;;;;;;;21.52;76.39;98746.59;4916718;29;20115;-81
2023/10/13 09:50:04;;;;;;;13.35;5.07;;;;;;;21.62;76.66;98791.88;4916265;29;20044;-80
2023/10/13 09:52:32;;;;;;;16.20;6.38;;;;;;;21.70;76.92;98780.22;4916595;29;20048;-79
2023/10/13 09:55:13;;;;;;;18.95;5.70;;;;;;;21.76;76.06;98752.75;4915970;29;20051;-79
2023/10/13 09:57:45;;;;;;;11.63;5.25;;;;;;;21.89;75.95;98773.50;4899634;29;20505;-80
2023/10/13 10:01:07;;;;;;;16.40;5.57;;;;;;;21.99;75.94;98770.56;4916984;29;20040;-80
2023/10/13 10:03:15;;;;;;;16.15;5.35;;;;;;;22.09;75.78;98756.88;4903370;29;20055;-80
2023/10/13 10:05:49;;;;;;;15.85;5.47;;;;;;;22.18;75.18;98747.69;4906061;29;20127;-80
2023/10/13 10:08:33;;;;;;;11.73;5.60;;;;;;;22.24;74.61;98765.69;4916287;29;20119;-82
2023/10/13 10:11:09;;;;;;;14.65;5.70;;;;;;;22.32;74.27;98756.69;4907833;29;20634;-81
2023/10/13 10:14:00;;;;;;;14.10;5.38;;;;;;;22.42;74.25;98748.38;4914275;29;20052;-80
2023/10/13 10:16:59;;;;;;;9.15;5.10;;;;;;;22.47;73.74;98745.94;4937455;23;20056;-78
2023/10/13 10:19:30;;;;;;;14.77;5.85;;;;;;;22.59;73.76;98729.38;4910531;29;20050;-75
2023/10/13 10:22:18;;;;;;;15.75;5.78;;;;;;;22.60;72.30;98729.19;4914034;29;20048;-73
2023/10/13 10:24:56;;;;;;;12.57;5.20;;;;;;;22.62;71.91;98734.38;4914641;29;20442;-75
2023/10/13 10:27:29;;;;;;;14.52;5.05;;;;;;;22.67;71.72;98737.31;4914475;29;20075;-77
2023/10/13 10:29:57;;;;;;;10.23;5.50;;;;;;;22.71;72.87;98746.63;4914503;29;20138;-74
2023/10/13 10:32:43;;;;;;;12.43;4.80;;;;;;;22.71;71.87;98730.53;4915654;29;20044;-77
2023/10/13 10:35:20;;;;;;;14.90;5.47;;;;;;;22.82;72.57;98721.13;4916217;29;20048;-76
2023/10/13 10:37:47;;;;;;;12.88;5.82;;;;;;;22.90;72.31;98712.13;4915818;29;20048;-76
2023/10/13 10:43:20;;;;;;;12.13;5.25;;;;;;;23.07;71.46;98712.66;4890898;29;20105;-76
2023/10/13 10:46:01;;;;;;;16.20;5.80;;;;;;;23.14;70.34;98707.34;4894293;29;20184;-74
2023/10/13 10:48:33;;;;;;;14.00;5.90;;;;;;;23.17;68.91;98717.69;4906320;29;20067;-76
2023/10/13 10:51:06;;;;;;;14.48;5.68;;;;;;;23.20;69.33;98719.97;4915962;29;20075;-76
2023/10/13 10:53:43;;;;;;;18.77;5.88;;;;;;;23.20;68.65;98701.19;4915781;29;20068;-76
2023/10/13 10:56:20;;;;;;;19.73;6.00;;;;;;;23.20;68.12;98701.19;5092883;23;20437;-82
2023/10/13 10:58:54;;;;;;;15.43;6.00;;;;;;;23.22;68.66;98709.88;4918654;29;20043;-80
2023/10/13 11:01:33;;;;;;;17.65;6.00;;;;;;;23.24;68.74;98705.13;4915390;29;20492;-81
2023/10/13 11:04:07;;;;;;;14.60;6.07;;;;;;;23.25;68.11;98696.06;4906933;29;20044;-82
2023/10/13 11:06:42;;;;;;;11.82;5.55;;;;;;;23.28;67.59;98695.66;4915340;29;20048;-80
2023/10/13 11:09:31;;;;;;;14.10;6.05;;;;;;;23.27;67.20;98685.97;4909780;29;20070;-81
2023/10/13 11:12:14;;;;;;;14.18;5.80;;;;;;;23.22;65.59;98680.34;4915148;29;20606;-80
2023/10/13 11:17:48;;;;;;;11.50;5.60;;;;;;;23.25;67.04;98668.41;4912167;29;20048;-81
2023/10/13 11:20:17;;;;;;;14.98;5.97;;;;;;;23.23;66.53;98649.78;4914876;29;20047;-80
2023/10/13 11:22:48;;;;;;;18.02;5.93;;;;;;;23.22;65.89;98661.56;4914967;29;20059;-79
2023/10/13 11:25:29;;;;;;;13.88;6.30;;;;;;;23.17;64.67;98659.47;4898622;29;20048;-80
2023/10/13 11:27:58;;;;;;;13.23;5.57;;;;;;;23.21;66.26;98651.03;4891069;29;20044;-82
2023/10/13 11:33:10;;;;;;;16.27;5.90;;;;;;;23.16;64.97;98646.22;4908816;29;20138;-80
2023/10/13 11:38:27;;;;;;;12.15;5.22;;;;;;;23.18;64.96;98633.47;4910603;29;20493;-82
2023/10/13 11:49:36;;;;;;;12.32;5.88;;;;;;;23.34;64.53;98623.44;4915880;29;20043;-81
2023/10/13 11:52:18;;;;;;;12.95;5.38;;;;;;;23.35;64.33;98614.34;4914126;29;20134;-81
2023/10/13 11:54:46;;;;;;;13.25;6.10;;;;;;;23.37;63.97;98609.63;4914131;29;20051;-79
2023/10/13 11:57:16;;;;;;;16.95;5.57;;;;;;;23.41;64.43;98600.13;4914198;29;20052;-81
2023/10/13 11:59:53;;;;;;;13.30;6.28;;;;;;;23.47;64.22;98588.59;4914269;29;20047;-81
2023/10/13 12:04:57;;;;;;;16.27;5.95;;;;;;;23.62;63.86;98584.94;4910091;29;20048;-83
2023/10/13 12:07:39;;;;;;;15.55;6.57;;;;;;;23.69;64.23;98583.91;4910884;29;20048;-82
2023/10/13 12:10:15;;;;;;;17.15;5.97;;;;;;;23.78;63.68;98586.41;4913603;29;20051;-82
2023/10/13 12:12:43;;;;;;;16.65;6.07;;;;;;;23.86;62.79;98575.47;4909345;29;20076;-82
2023/10/13 12:15:13;;;;;;;16.58;5.82;;;;;;;23.94;62.86;98577.16;4918833;29;20047;-81
2023/10/13 12:17:44;;;;;;;13.90;6.07;;;;;;;24.01;62.83;98575.31;4918776;29;20058;-81
2023/10/13 12:20:18;;;;;;;16.58;5.50;;;;;;;24.07;62.05;98561.03;4914562;29;20040;-81
2023/10/13 12:22:59;;;;;;;14.80;5.90;;;;;;;24.13;62.00;98564.78;4914488;29;20044;-83
2023/10/13 12:28:12;;;;;;;17.20;6.38;;;;;;;24.22;61.81;98557.34;4906605;29;20564;-83
2023/10/13 12:30:54;;;;;;;13.95;5.57;;;;;;;24.25;61.73;98545.38;4909274;29;20044;-80
2023/10/13 12:33:24;;;;;;;13.90;5.90;;;;;;;24.24;60.78;98541.84;4918268;29;20548;-80
2023/10/13 12:52:18;;;;;;;15.63;5.82;;;;;;;24.65;60.13;98547.19;4919498;29;20370;-80
2023/10/13 12:57:27;;;;;;;12.05;5.55;;;;;;;24.68;60.03;98506.41;4906426;29;20044;-80
2023/10/13 12:59:55;;;;;;;10.85;5.60;;;;;;;24.71;59.87;98511.38;4909463;29;20051;-81
2023/10/13 13:02:26;;;;;;;14.02;6.38;;;;;;;24.77;59.37;98506.97;4898976;29;20053;-81
2023/10/13 13:04:58;;;;;;;19.63;6.63;;;;;;;24.89;59.85;98526.06;4913190;29;20050;-80
2023/10/13 13:07:31;;;;;;;11.07;5.40;;;;;;;24.98;59.18;98514.81;4910526;29;20437;-81
2023/10/13 13:10:00;;;;;;;14.55;5.97;;;;;;;25.07;59.39;98510.03;4903082;29;20048;-80
2023/10/13 13:12:30;;;;;;;13.57;6.53;;;;;;;25.16;59.28;98502.56;4907021;29;20052;-80
2023/10/13 13:14:56;;;;;;;15.88;6.43;;;;;;;25.24;59.04;98504.97;4900076;29;20053;-82
2023/10/13 13:17:23;;;;;;;17.73;6.78;;;;;;;25.33;58.90;98502.03;4898450;29;20509;-80
2023/10/13 13:19:50;;;;;;;17.17;6.40;;;;;;;25.37;58.04;98498.72;4898932;29;20088;-80
2023/10/13 13:22:17;;;;;;;20.70;6.57;;;;;;;25.43;57.92;98497.03;4899466;29;20036;-80
2023/10/13 13:24:45;;;;;;;13.80;6.45;;;;;;;25.47;57.58;98502.78;4915831;29;20478;-80
2023/10/13 13:27:22;;;;;;;14.90;6.22;;;;;;;25.48;56.83;98507.13;4900278;29;20051;-80
2023/10/13 13:29:48;;;;;;;17.45;6.15;;;;;;;25.51;56.97;98512.09;4902069;29;20059;-80
2023/10/13 13:32:24;;;;;;;14.55;6.47;;;;;;;25.50;56.88;98505.06;4898489;29;20052;-82
2023/10/13 13:35:05;;;;;;;14.50;6.50;;;;;;;25.49;56.84;98508.81;4898412;29;20052;-80
2023/10/13 13:37:31;;;;;;;14.85;6.80;;;;;;;25.46;56.63;98517.31;4910385;29;20050;-81
2023/10/13 13:40:22;;;;;;;16.17;6.55;;;;;;;25.43;56.15;98515.88;4916970;29;20082;-80
2023/10/13 13:42:48;;;;;;;19.75;7.05;;;;;;;25.43;55.79;98491.63;4898016;29;20044;-80
2023/10/13 13:45:27;;;;;;;22.25;7.40;;;;;;;25.42;55.61;98502.63;4898243;29;20052;-79
2023/10/13 13:47:54;;;;;;;14.60;5.82;;;;;;;25.41;55.22;98496.41;4898119;29;20049;-81
2023/10/13 13:50:28;;;;;;;12.77;5.88;;;;;;;25.38;53.60;98494.97;4898253;29;20053;-80
2023/10/13 13:52:59;;;;;;;13.77;6.40;;;;;;;25.40;54.50;98480.44;4898415;29;20111;-82
2023/10/13 13:55:31;;;;;;;17.00;6.00;;;;;;;25.37;54.54;98477.16;4898258;29;20044;-80
2023/10/13 13:57:58;;;;;;;14.13;6.15;;;;;;;25.35;54.35;98481.13;4898106;29;20045;-79
2023/10/13 14:00:37;;;;;;;17.38;6.18;;;;;;;25.34;54.73;98484.84;4898220;29;20080;-80
2023/10/13 14:03:30;;;;;;;17.67;6.63;;;;;;;25.28;53.61;98489.22;4898029;29;20478;-81
2023/10/13 14:06:02;;;;;;;22.08;7.28;;;;;;;25.25;53.62;98478.88;4897967;29;20056;-81
2023/10/13 14:08:29;;;;;;;17.67;6.47;;;;;;;25.20;53.72;98468.75;4897796;29;20478;-81
2023/10/13 14:11:21;;;;;;;15.95;6.47;;;;;;;25.18;54.08;98489.69;4897809;29;20477;-80
2023/10/13 14:13:49;;;;;;;18.80;6.60;;;;;;;25.13;53.81;98473.34;4897854;29;20482;-80
2023/10/13 14:16:17;;;;;;;18.50;5.88;;;;;;;25.09;53.87;98469.44;4897609;29;20517;-80
2023/10/13 14:18:47;;;;;;;19.20;6.03;;;;;;;25.02;52.42;98482.09;4897828;29;20388;-80
2023/10/13 14:21:18;;;;;;;27.90;6.80;;;;;;;25.00;53.38;98473.41;4897742;29;20144;-81
2023/10/13 14:23:47;;;;;;;16.35;5.75;;;;;;;24.96;53.12;98470.31;4881048;29;20394;-81
2023/10/13 14:26:15;;;;;;;17.38;6.60;;;;;;;24.91;53.28;98480.91;4897618;29;20045;-81
2023/10/13 14:29:15;;;;;;;17.00;5.38;;;;;;;24.89;53.35;98480.28;4897778;29;20045;-83
2023/10/13 14:31:39;;;;;;;22.17;6.38;;;;;;;24.86;53.61;98478.84;4895834;29;20080;-80
2023/10/13 14:34:08;;;;;;;15.65;5.82;;;;;;;24.83;53.36;98476.56;4897447;29;20056;-82
2023/10/13 14:36:35;;;;;;;17.77;6.25;;;;;;;24.81;53.42;98484.84;4897387;29;20090;-81
2023/10/13 14:39:08;;;;;;;17.60;5.93;;;;;;;24.77;53.13;98480.91;4897366;29;20474;-82
2023/10/13 14:41:37;;;;;;;16.13;5.78;;;;;;;24.76;53.33;98476.56;4897482;29;20041;-80
2023/10/13 14:44:07;;;;;;;15.10;5.90;;;;;;;24.73;52.92;98477.00;4897302;29;20040;-81
2023/10/13 14:46:39;;;;;;;24.98;6.68;;;;;;;24.71;52.98;98471.00;4896996;29;20055;-80
2023/10/13 14:49:06;;;;;;;18.65;5.68;;;;;;;24.70;53.15;98469.34;4897446;29;20056;-82
2023/10/13 14:51:33;;;;;;;19.85;5.68;;;;;;;24.68;53.11;98480.34;4948217;23;20505;-88
2023/10/13 14:54:00;;;;;;;20.17;5.78;;;;;;;24.68;52.79;98492.94;4915146;29;20052;-89
2023/10/13 14:56:27;;;;;;;17.48;5.47;;;;;;;24.64;52.98;98486.34;4915653;29;20495;-90
2023/10/13 14:58:55;;;;;;;19.02;5.75;;;;;;;24.63;52.91;98488.19;4914585;29;20144;-89
2023/10/13 15:01:24;;;;;;;15.38;5.18;;;;;;;24.60;53.24;98494.00;4909095;29;20052;-88
2023/10/13 15:03:58;;;;;;;20.05;5.13;;;;;;;24.58;53.20;98482.63;4897180;29;20420;-89
2023/10/13 15:06:29;;;;;;;19.50;5.03;;;;;;;24.54;52.74;98490.28;4905804;29;20541;-88
2023/10/13 15:08:58;;;;;;;17.02;5.32;;;;;;;24.51;53.09;98482.63;4915602;29;20060;-89
2023/10/13 15:11:38;;;;;;;16.13;5.35;;;;;;;24.47;53.06;98492.16;4916588;29;20048;-89
2023/10/13 15:14:23;;;;;;;16.85;5.15;;;;;;;24.42;52.91;98491.97;5109743;27;20155;-88
2023/10/13 15:16:51;;;;;;;13.98;5.15;;;;;;;24.36;53.30;98501.69;5109964;28;20119;-89
2023/10/13 15:19:18;;;;;;;19.25;5.90;;;;;;;24.33;53.13;98496.72;5108870;28;20418;-88